Time;durP1;ratioP1;P1;durP2;ratioP2;P2;SDS_P1;SDS_P2;PMS_P1;PMS_P2;Temp;Humidity;BMP_temperature;BMP_pressure;BME280_temperature;BME280_humidity;BME280_pressure;Samples;Min_cycle;Max_cycle;Signal;HPM_P1;HPM_P2
2023/06/02 00:00:06;;;;;;;40.20;20.90;;;19.40;99.90;;;;;;4969198;28;20037;-91
2023/06/02 00:02:36;;;;;;;40.67;19.85;;;19.40;99.90;;;;;;4983270;28;20125;-91
2023/06/02 00:05:05;;;;;;;43.47;21.85;;;19.50;99.90;;;;;;4964635;28;20391;-92
2023/06/02 00:07:31;;;;;;;42.00;20.52;;;19.40;99.90;;;;;;4964136;28;20026;-92
2023/06/02 00:09:58;;;;;;;47.15;21.88;;;19.40;99.90;;;;;;4964420;28;20030;-92
2023/06/02 00:12:25;;;;;;;38.13;20.20;;;19.40;99.90;;;;;;4960449;28;20039;-90
2023/06/02 00:14:52;;;;;;;40.20;21.00;;;19.40;99.90;;;;;;4944355;28;20051;-91
2023/06/02 00:17:19;;;;;;;38.47;20.73;;;19.30;99.90;;;;;;4960436;28;20039;-91
2023/06/02 00:19:47;;;;;;;43.55;20.85;;;19.20;99.90;;;;;;4944403;28;20037;-94
2023/06/02 00:22:14;;;;;;;43.40;20.83;;;19.20;99.90;;;;;;4944773;28;20125;-92
2023/06/02 00:24:41;;;;;;;41.88;20.95;;;19.10;99.90;;;;;;4944023;28;20062;-93
2023/06/02 00:27:09;;;;;;;36.17;19.23;;;19.00;99.90;;;;;;4944166;28;20439;-91
2023/06/02 00:29:36;;;;;;;37.38;20.70;;;19.00;99.90;;;;;;4943776;28;20027;-91
2023/06/02 00:32:03;;;;;;;44.83;20.45;;;19.00;99.90;;;;;;4944099;28;20035;-90
2023/06/02 00:34:30;;;;;;;38.35;19.75;;;18.90;99.90;;;;;;4943660;28;20026;-92
2023/06/02 00:36:56;;;;;;;37.92;20.02;;;18.90;99.90;;;;;;4944001;28;20047;-91
2023/06/02 00:39:23;;;;;;;40.85;20.00;;;18.90;99.90;;;;;;4944333;28;20022;-92
2023/06/02 00:41:50;;;;;;;41.00;20.80;;;18.80;99.90;;;;;;4960166;28;20050;-91
2023/06/02 00:44:16;;;;;;;46.47;21.63;;;18.80;99.90;;;;;;4943536;28;20035;-92
2023/06/02 00:46:43;;;;;;;47.33;22.27;;;18.80;99.90;;;;;;4940608;29;20496;-91
2023/06/02 00:49:10;;;;;;;41.60;20.75;;;18.80;99.90;;;;;;4944194;28;20562;-92
2023/06/02 00:51:37;;;;;;;45.00;20.92;;;18.80;99.90;;;;;;4944553;28;20430;-93
2023/06/02 00:54:05;;;;;;;41.67;20.05;;;18.90;99.90;;;;;;4952290;28;20034;-92
2023/06/02 00:56:32;;;;;;;48.60;21.50;;;18.90;99.90;;;;;;4960343;28;20050;-92
2023/06/02 00:59:00;;;;;;;39.70;21.10;;;18.90;99.90;;;;;;4960419;28;20030;-91
2023/06/02 01:01:29;;;;;;;44.63;21.45;;;19.00;99.90;;;;;;4960410;28;20062;-91
2023/06/02 01:03:59;;;;;;;49.40;21.80;;;19.00;99.90;;;;;;4970747;28;20377;-91
2023/06/02 01:06:36;;;;;;;41.78;21.40;;;19.00;99.90;;;;;;4979532;28;20031;-92
2023/06/02 01:09:05;;;;;;;41.70;20.55;;;19.00;99.90;;;;;;4963683;28;20074;-92
2023/06/02 01:11:33;;;;;;;39.08;19.42;;;19.00;99.90;;;;;;4963448;28;20019;-92
2023/06/02 01:14:00;;;;;;;38.08;19.92;;;19.00;99.90;;;;;;4966905;28;20053;-93
2023/06/02 01:16:27;;;;;;;45.72;21.38;;;19.00;99.90;;;;;;4976121;28;20035;-91
2023/06/02 01:18:54;;;;;;;43.10;19.98;;;19.00;99.90;;;;;;4979157;28;20034;-91
2023/06/02 01:21:23;;;;;;;41.70;20.65;;;19.00;99.90;;;;;;4963171;28;20034;-91
2023/06/02 01:23:57;;;;;;;45.40;19.83;;;19.00;99.90;;;;;;4965194;28;20070;-92
2023/06/02 01:26:25;;;;;;;44.45;19.80;;;18.90;99.90;;;;;;4962766;28;20880;-93
2023/06/02 01:28:51;;;;;;;40.83;18.48;;;18.90;99.90;;;;;;4963196;28;20026;-92
2023/06/02 01:31:23;;;;;;;49.50;20.05;;;18.80;99.90;;;;;;4963118;28;20050;-93
2023/06/02 01:33:50;;;;;;;58.45;20.00;;;18.80;99.90;;;;;;4962769;28;20431;-91
2023/06/02 01:36:20;;;;;;;50.83;20.48;;;18.70;99.90;;;;;;4962921;28;20491;-91
2023/06/02 01:38:49;;;;;;;47.00;18.92;;;18.70;99.90;;;;;;4962867;28;20543;-90
2023/06/02 01:41:20;;;;;;;43.65;19.13;;;18.70;99.90;;;;;;4962679;28;20061;-90
2023/06/02 01:43:49;;;;;;;53.55;19.92;;;18.60;99.90;;;;;;4959420;28;20500;-93
2023/06/02 01:46:17;;;;;;;54.90;20.30;;;18.60;99.90;;;;;;4975642;28;20047;-91
2023/06/02 01:48:43;;;;;;;55.08;20.17;;;18.60;99.90;;;;;;4942933;29;20556;-91
2023/06/02 01:51:10;;;;;;;49.15;19.63;;;18.60;99.90;;;;;;4940474;29;20370;-93
2023/06/02 01:53:37;;;;;;;55.63;22.63;;;18.60;99.90;;;;;;4946235;28;20027;-93
2023/06/02 01:56:04;;;;;;;57.55;22.85;;;18.60;99.90;;;;;;4961736;28;20035;-90
2023/06/02 01:58:31;;;;;;;54.38;22.88;;;18.70;99.90;;;;;;4962228;28;20046;-91
2023/06/02 02:00:58;;;;;;;60.35;21.35;;;18.60;99.90;;;;;;4962306;28;20034;-92
2023/06/02 02:03:24;;;;;;;57.67;21.58;;;18.50;99.90;;;;;;4979228;28;20038;-92
2023/06/02 02:05:51;;;;;;;62.10;22.83;;;18.50;99.90;;;;;;4977693;28;20042;-91
2023/06/02 02:08:17;;;;;;;66.43;23.48;;;18.60;99.90;;;;;;4978672;28;20054;-92
2023/06/02 02:10:43;;;;;;;59.33;23.27;;;18.50;99.90;;;;;;4978964;28;20057;-91
2023/06/02 02:13:10;;;;;;;67.10;24.15;;;18.50;99.90;;;;;;4978559;28;20027;-92
2023/06/02 02:15:37;;;;;;;70.00;23.30;;;18.60;99.90;;;;;;4962239;28;20065;-90
2023/06/02 02:18:04;;;;;;;68.15;21.80;;;18.60;99.90;;;;;;4962144;28;20022;-91
2023/06/02 02:20:31;;;;;;;81.00;22.77;;;18.60;99.90;;;;;;4962202;28;20085;-94
2023/06/02 02:22:58;;;;;;;67.32;20.27;;;18.60;99.90;;;;;;4961787;28;20041;-92
2023/06/02 02:25:25;;;;;;;67.38;21.08;;;18.60;99.90;;;;;;4961833;28;20034;-91
2023/06/02 02:27:51;;;;;;;69.63;20.70;;;18.70;99.90;;;;;;4961216;28;20054;-91
2023/06/02 02:30:18;;;;;;;68.38;21.20;;;18.60;99.90;;;;;;4961793;28;20418;-92
2023/06/02 02:32:45;;;;;;;68.30;20.55;;;18.60;99.90;;;;;;4961854;28;20022;-92
2023/06/02 02:35:12;;;;;;;54.95;20.70;;;18.60;99.90;;;;;;4961990;28;20224;-92
2023/06/02 02:37:40;;;;;;;57.03;19.90;;;18.60;99.90;;;;;;4961554;28;20117;-91
2023/06/02 02:40:07;;;;;;;49.00;19.13;;;18.60;99.90;;;;;;4961933;28;20030;-92
2023/06/02 02:42:34;;;;;;;51.65;19.92;;;18.60;99.90;;;;;;4961771;28;20026;-91
2023/06/02 02:45:05;;;;;;;51.20;20.02;;;18.60;99.90;;;;;;4961526;28;20043;-91
2023/06/02 02:47:34;;;;;;;51.50;19.52;;;18.60;99.90;;;;;;4958263;28;20387;-94
2023/06/02 02:50:00;;;;;;;54.97;20.00;;;18.50;99.90;;;;;;4974598;28;20030;-92
2023/06/02 02:52:28;;;;;;;61.28;20.13;;;18.50;99.90;;;;;;4974200;28;20038;-91
2023/06/02 02:54:56;;;;;;;56.75;20.13;;;18.50;99.90;;;;;;4974310;28;20023;-91
2023/06/02 02:57:22;;;;;;;45.70;17.77;;;18.50;99.90;;;;;;4977533;28;20083;-91
2023/06/02 02:59:49;;;;;;;49.47;16.50;;;18.50;99.90;;;;;;4961661;28;20018;-93
2023/06/02 03:02:16;;;;;;;42.55;15.65;;;18.40;99.90;;;;;;4977533;28;20030;-92
2023/06/02 03:04:43;;;;;;;45.75;17.08;;;18.30;99.90;;;;;;4961504;28;20026;-91
2023/06/02 03:07:10;;;;;;;39.55;15.25;;;18.30;99.90;;;;;;4977528;28;20030;-90
2023/06/02 03:09:40;;;;;;;49.97;15.18;;;18.40;99.90;;;;;;4961480;28;20030;-94
2023/06/02 03:12:07;;;;;;;41.88;15.30;;;18.40;99.90;;;;;;4961666;28;20073;-92
2023/06/02 03:14:34;;;;;;;55.92;16.38;;;18.40;99.90;;;;;;4961588;28;20034;-92
2023/06/02 03:17:03;;;;;;;57.67;16.33;;;18.40;99.90;;;;;;4962147;28;20038;-91
2023/06/02 03:19:30;;;;;;;60.10;16.60;;;18.40;99.90;;;;;;4965364;28;20035;-91
2023/06/02 03:22:00;;;;;;;63.47;15.82;;;18.40;99.90;;;;;;4981265;28;20062;-91
2023/06/02 03:24:27;;;;;;;64.40;17.17;;;18.40;99.90;;;;;;4965579;28;20050;-92
2023/06/02 03:26:56;;;;;;;55.03;16.15;;;18.40;99.90;;;;;;4964482;28;20121;-91
2023/06/02 03:29:23;;;;;;;65.25;17.88;;;18.40;99.90;;;;;;4965322;28;20018;-92
2023/06/02 03:31:52;;;;;;;67.00;16.98;;;18.40;99.90;;;;;;4966471;28;20031;-90
2023/06/02 03:34:22;;;;;;;60.95;17.02;;;18.40;99.90;;;;;;4968648;28;20022;-90
2023/06/02 03:36:50;;;;;;;65.70;17.52;;;18.50;99.90;;;;;;4965175;28;20033;-90
2023/06/02 03:39:17;;;;;;;68.90;20.20;;;18.50;99.90;;;;;;4964713;28;20050;-91
2023/06/02 03:41:45;;;;;;;82.53;18.70;;;18.50;99.90;;;;;;4965172;28;20026;-93
2023/06/02 03:44:13;;;;;;;76.63;21.05;;;18.50;99.90;;;;;;4964775;28;20050;-91
2023/06/02 03:46:40;;;;;;;71.68;20.20;;;18.50;99.90;;;;;;4961414;28;20150;-90
2023/06/02 03:49:08;;;;;;;80.32;20.75;;;18.60;99.90;;;;;;4964879;28;20038;-91
2023/06/02 03:51:35;;;;;;;72.78;21.80;;;18.60;99.90;;;;;;4964879;28;20027;-91
2023/06/02 03:54:03;;;;;;;71.10;22.52;;;18.70;99.90;;;;;;4965034;28;20030;-92
2023/06/02 03:56:31;;;;;;;87.53;24.65;;;18.80;99.90;;;;;;4980814;28;20619;-93
2023/06/02 03:58:57;;;;;;;85.43;24.10;;;18.80;99.90;;;;;;4964407;28;20031;-90
2023/06/02 04:01:24;;;;;;;94.22;26.00;;;18.90;99.90;;;;;;4964843;28;20038;-90
2023/06/02 04:03:53;;;;;;;87.32;24.77;;;18.90;99.90;;;;;;4964673;28;20026;-91
2023/06/02 04:06:21;;;;;;;90.80;26.15;;;19.00;99.90;;;;;;4964716;28;20081;-92
2023/06/02 04:08:47;;;;;;;89.80;25.10;;;18.90;99.90;;;;;;4964300;28;20030;-90
2023/06/02 04:11:15;;;;;;;79.18;26.33;;;19.00;99.90;;;;;;4964260;28;20031;-90
2023/06/02 04:13:42;;;;;;;80.85;27.27;;;19.10;99.90;;;;;;4964133;28;20030;-91
2023/06/02 04:16:09;;;;;;;67.97;27.13;;;19.10;99.90;;;;;;4952530;28;20129;-92
2023/06/02 04:18:40;;;;;;;67.75;27.27;;;19.20;99.90;;;;;;4960955;28;20053;-91
2023/06/02 04:21:12;;;;;;;68.82;26.55;;;19.30;99.90;;;;;;4980496;28;20488;-91
2023/06/02 04:23:41;;;;;;;71.15;26.40;;;19.40;99.90;;;;;;4964187;28;20498;-93
2023/06/02 04:26:08;;;;;;;61.28;26.00;;;19.40;99.90;;;;;;4964240;28;20030;-91
2023/06/02 04:28:35;;;;;;;56.55;26.40;;;19.50;99.90;;;;;;4964751;28;20070;-92
2023/06/02 04:31:05;;;;;;;57.47;25.33;;;19.50;99.90;;;;;;4963857;28;20484;-92
2023/06/02 04:33:36;;;;;;;60.33;24.70;;;19.60;99.90;;;;;;4964907;28;20369;-92
2023/06/02 04:36:03;;;;;;;53.42;25.17;;;19.50;99.90;;;;;;4964088;28;20050;-92
2023/06/02 04:38:31;;;;;;;57.47;25.33;;;19.60;99.90;;;;;;4963639;28;20027;-90
2023/06/02 04:41:01;;;;;;;53.88;25.60;;;19.60;99.90;;;;;;4963928;28;20484;-91
2023/06/02 04:43:29;;;;;;;53.25;24.40;;;19.60;99.90;;;;;;4964195;28;20029;-90
2023/06/02 04:46:01;;;;;;;48.30;21.17;;;19.60;99.90;;;;;;4962085;28;20138;-92
2023/06/02 04:48:29;;;;;;;54.33;24.75;;;19.60;99.90;;;;;;4962216;28;20027;-93
2023/06/02 04:50:56;;;;;;;59.13;24.30;;;19.60;99.90;;;;;;4963055;28;20480;-91
2023/06/02 04:53:23;;;;;;;49.65;23.98;;;19.70;99.90;;;;;;4963804;28;20026;-91
2023/06/02 04:55:49;;;;;;;45.53;22.65;;;19.80;99.90;;;;;;4963564;28;20376;-91
2023/06/02 04:58:16;;;;;;;45.25;24.02;;;19.90;99.90;;;;;;4948684;29;20023;-91
2023/06/02 05:00:43;;;;;;;43.47;20.90;;;20.00;99.90;;;;;;4925440;29;20031;-91
2023/06/02 05:03:10;;;;;;;35.45;19.70;;;20.40;99.90;;;;;;4941099;29;20031;-91
2023/06/02 05:05:36;;;;;;;37.92;20.70;;;20.80;99.90;;;;;;4957061;28;20027;-92
2023/06/02 05:08:05;;;;;;;32.90;19.20;;;20.90;99.90;;;;;;4960996;28;20054;-93
2023/06/02 05:10:32;;;;;;;30.08;16.77;;;21.20;99.90;;;;;;4976542;28;20400;-92
2023/06/02 05:12:59;;;;;;;27.15;15.82;;;21.90;99.90;;;;;;4962181;28;20027;-93
2023/06/02 05:15:27;;;;;;;27.40;17.00;;;22.80;99.90;;;;;;4963000;28;20041;-92
2023/06/02 05:17:55;;;;;;;24.75;19.50;;;24.30;99.90;;;;;;4961648;28;20030;-91
2023/06/02 05:20:23;;;;;;;25.50;20.38;;;25.30;99.90;;;;;;4947581;28;20037;-92
2023/06/02 05:22:53;;;;;;;26.75;21.80;;;26.30;99.90;;;;;;4944684;28;20027;-93
2023/06/02 05:25:20;;;;;;;24.35;21.67;;;26.30;99.90;;;;;;4959787;28;20035;-90
2023/06/02 05:27:46;;;;;;;25.60;20.23;;;25.50;99.90;;;;;;4943619;28;20066;-91
2023/06/02 05:30:14;;;;;;;26.92;18.02;;;24.50;99.90;;;;;;4959793;28;20037;-94
2023/06/02 05:32:42;;;;;;;23.45;16.73;;;23.30;99.90;;;;;;4944511;28;20023;-92
2023/06/02 05:35:10;;;;;;;28.83;16.48;;;22.50;99.90;;;;;;4960100;28;20037;-92
2023/06/02 05:37:37;;;;;;;25.88;14.93;;;22.10;99.90;;;;;;4959384;28;20087;-92
2023/06/02 05:40:03;;;;;;;25.10;15.38;;;21.90;99.90;;;;;;4943635;28;20169;-91
2023/06/02 05:42:32;;;;;;;24.42;14.93;;;21.90;99.90;;;;;;4959705;28;20038;-91
2023/06/02 05:45:00;;;;;;;23.02;14.73;;;22.00;99.90;;;;;;4961609;28;20416;-92
2023/06/02 05:47:30;;;;;;;23.30;15.55;;;22.30;99.90;;;;;;4963049;28;20026;-90
2023/06/02 05:49:57;;;;;;;21.42;13.95;;;22.30;99.90;;;;;;4962469;28;20037;-90
2023/06/02 05:52:24;;;;;;;21.73;14.60;;;22.00;99.90;;;;;;4994815;28;20109;-91
2023/06/02 05:54:53;;;;;;;19.33;13.75;;;21.80;99.90;;;;;;4962545;28;20041;-91
2023/06/02 05:57:19;;;;;;;22.08;13.68;;;21.70;99.90;;;;;;4962588;28;20439;-91
2023/06/02 05:59:46;;;;;;;23.95;15.40;;;22.30;99.90;;;;;;4962326;28;20056;-92
2023/06/02 06:02:13;;;;;;;22.38;15.75;;;22.60;99.90;;;;;;4962600;28;20065;-93
2023/06/02 06:04:40;;;;;;;24.20;14.75;;;22.50;99.90;;;;;;4959039;28;20066;-92
2023/06/02 06:07:08;;;;;;;18.13;13.77;;;22.30;99.90;;;;;;4959468;28;20056;-91
2023/06/02 06:09:34;;;;;;;20.40;15.48;;;22.70;99.90;;;;;;4958928;28;20085;-91
2023/06/02 06:12:03;;;;;;;21.10;16.15;;;23.30;99.90;;;;;;4990808;28;20019;-90
2023/06/02 06:14:33;;;;;;;18.55;16.65;;;23.40;99.90;;;;;;4961787;28;20077;-92
2023/06/02 06:17:00;;;;;;;19.20;17.17;;;24.10;99.90;;;;;;4966274;28;20483;-92
2023/06/02 06:19:26;;;;;;;20.08;18.02;;;25.30;99.90;;;;;;4994063;28;20069;-93
2023/06/02 06:21:53;;;;;;;20.65;18.80;;;26.30;99.90;;;;;;4962074;28;20507;-93
2023/06/02 06:24:20;;;;;;;18.05;16.38;;;27.30;99.90;;;;;;4962613;28;20062;-92
2023/06/02 06:26:46;;;;;;;17.42;15.90;;;27.20;99.90;;;;;;4958077;28;20061;-92
2023/06/02 06:29:13;;;;;;;19.27;17.48;;;26.80;99.90;;;;;;4942691;28;20533;-92
2023/06/02 06:31:40;;;;;;;21.65;19.33;;;27.00;99.90;;;;;;4974929;28;20042;-93
2023/06/02 06:34:10;;;;;;;21.20;19.40;;;26.60;99.90;;;;;;4958877;28;20023;-91
2023/06/02 06:36:37;;;;;;;19.63;18.00;;;26.00;99.90;;;;;;4988481;28;20065;-94
2023/06/02 10:36:44;;;;;;;20.00;18.60;;;27.30;99.90;;;;;;5844914;23;20038;-91
2023/06/02 10:39:40;;;;;;;20.58;19.23;;;27.10;99.90;;;;;;5000364;28;20382;-93
2023/06/02 10:42:11;;;;;;;21.05;19.70;;;27.50;99.90;;;;;;4982609;28;20030;-93
2023/06/02 10:44:38;;;;;;;21.63;20.02;;;28.40;99.90;;;;;;4997975;28;20117;-93
2023/06/02 10:47:20;;;;;;;21.30;20.00;;;28.30;99.90;;;;;;4997085;28;20465;-94
2023/06/02 10:49:58;;;;;;;20.85;19.45;;;28.20;99.90;;;;;;4985961;28;20073;-92
2023/06/02 10:52:25;;;;;;;20.27;19.08;;;28.20;99.90;;;;;;4997985;28;20034;-93
2023/06/02 10:55:07;;;;;;;21.48;19.77;;;28.30;99.90;;;;;;4997912;28;20029;-92
2023/06/02 10:57:57;;;;;;;20.80;19.60;;;28.20;99.90;;;;;;4998332;28;20041;-93
2023/06/02 15:29:47;;;;;;;21.25;19.38;;;25.20;99.90;;;;;;5532311;23;20042;-80
2023/06/02 15:32:14;;;;;;;21.05;19.50;;;25.20;99.90;;;;;;5002651;28;20026;-81
2023/06/02 15:34:40;;;;;;;21.27;19.67;;;25.20;99.90;;;;;;5002516;28;20029;-81
2023/06/02 15:37:07;;;;;;;21.33;19.77;;;25.30;99.90;;;;;;5020167;28;20026;-82
2023/06/02 15:39:34;;;;;;;21.23;19.60;;;25.30;99.90;;;;;;5001920;28;20037;-81
2023/06/02 15:42:03;;;;;;;22.80;20.75;;;25.40;99.90;;;;;;5011931;28;20014;-81
2023/06/02 15:44:30;;;;;;;21.55;19.95;;;25.30;99.90;;;;;;4987474;28;20037;-87
2023/06/02 15:46:57;;;;;;;22.75;20.83;;;25.10;99.90;;;;;;4984330;28;20490;-87
2023/06/02 15:49:25;;;;;;;22.67;21.08;;;25.00;99.90;;;;;;4984245;28;20053;-81
2023/06/02 15:51:55;;;;;;;21.95;20.35;;;24.90;99.90;;;;;;5003196;28;20080;-90
2023/06/02 15:54:22;;;;;;;21.52;20.02;;;24.70;99.90;;;;;;4987649;28;20040;-88
2023/06/02 15:56:53;;;;;;;21.92;20.10;;;24.60;99.90;;;;;;4988946;28;20065;-87
2023/06/02 15:59:21;;;;;;;21.35;19.85;;;24.50;99.90;;;;;;4987720;28;20057;-87
2023/06/02 16:01:57;;;;;;;21.15;19.85;;;24.40;99.90;;;;;;5002055;28;20026;-86
2023/06/02 16:04:23;;;;;;;21.23;19.58;;;24.40;99.90;;;;;;4993394;28;20026;-84
2023/06/02 16:06:50;;;;;;;21.50;19.88;;;24.40;99.90;;;;;;5007429;28;20030;-83
2023/06/02 16:09:19;;;;;;;20.73;19.23;;;24.30;99.90;;;;;;4984462;28;20022;-89
2023/06/02 16:11:46;;;;;;;21.33;19.83;;;24.20;99.90;;;;;;4984302;28;20049;-89
2023/06/02 16:14:13;;;;;;;20.73;19.23;;;24.20;99.90;;;;;;4984332;28;20033;-89
2023/06/02 16:16:40;;;;;;;21.30;19.80;;;24.30;99.90;;;;;;4984224;28;20041;-89
2023/06/02 16:19:07;;;;;;;22.58;20.67;;;24.20;99.90;;;;;;4984056;28;20049;-89
2023/06/02 16:21:34;;;;;;;23.70;21.80;;;24.20;99.90;;;;;;4984134;28;20478;-90
2023/06/02 16:24:00;;;;;;;22.80;21.08;;;24.10;99.90;;;;;;4984138;28;20026;-89
2023/06/02 16:26:27;;;;;;;23.45;21.45;;;24.10;99.90;;;;;;4993176;28;20026;-89
2023/06/02 16:28:54;;;;;;;22.48;20.77;;;24.10;99.90;;;;;;4987475;28;20029;-90
2023/06/02 16:31:20;;;;;;;22.85;21.05;;;24.00;99.90;;;;;;4983679;28;20034;-89
2023/06/02 16:33:47;;;;;;;22.40;20.50;;;24.00;99.90;;;;;;4983283;28;20040;-87
2023/06/02 16:36:14;;;;;;;22.70;20.90;;;23.90;99.90;;;;;;4983380;28;20068;-88
2023/06/02 16:38:41;;;;;;;22.65;21.05;;;24.00;99.90;;;;;;4983134;28;20026;-91
2023/06/02 16:41:08;;;;;;;24.63;22.52;;;23.90;99.90;;;;;;4998618;28;20045;-87
2023/06/02 16:43:35;;;;;;;24.75;22.40;;;23.90;99.90;;;;;;4983150;28;20022;-89
2023/06/02 16:46:02;;;;;;;26.10;23.45;;;23.80;99.90;;;;;;4983333;28;20029;-87
2023/06/02 16:48:30;;;;;;;23.70;21.70;;;23.70;99.90;;;;;;4983207;28;20022;-87
2023/06/02 16:50:57;;;;;;;22.42;20.55;;;23.70;99.90;;;;;;4999254;28;20489;-87
2023/06/02 16:53:27;;;;;;;21.50;19.83;;;23.80;99.90;;;;;;4982913;28;20113;-86
2023/06/02 16:55:54;;;;;;;21.50;19.55;;;23.70;99.90;;;;;;4983676;28;20498;-87
2023/06/02 16:58:21;;;;;;;21.65;19.95;;;23.70;99.90;;;;;;4983035;28;20026;-87
2023/06/02 17:00:48;;;;;;;21.67;19.67;;;23.70;99.90;;;;;;4967701;28;20037;-88
2023/06/02 17:03:14;;;;;;;22.98;20.92;;;23.70;99.90;;;;;;4963429;28;20030;-87
2023/06/02 17:05:46;;;;;;;22.83;20.70;;;23.60;99.90;;;;;;4963776;28;20031;-87
2023/06/02 17:08:12;;;;;;;23.25;21.40;;;23.60;99.90;;;;;;4979470;28;20506;-87
2023/06/02 17:10:39;;;;;;;22.60;20.88;;;23.50;99.90;;;;;;4963467;28;20026;-88
2023/06/02 17:13:06;;;;;;;25.27;23.23;;;23.50;99.90;;;;;;4979384;28;20045;-87
2023/06/02 17:15:33;;;;;;;24.90;22.48;;;23.50;99.90;;;;;;4963283;28;20038;-87
2023/06/02 17:18:00;;;;;;;24.38;22.33;;;23.50;99.90;;;;;;4963317;28;20090;-89
2023/06/02 17:20:26;;;;;;;22.63;20.98;;;23.60;99.90;;;;;;4979136;28;20038;-88
2023/06/02 17:22:53;;;;;;;22.55;20.65;;;23.50;99.90;;;;;;4963297;28;20474;-85
2023/06/02 17:25:21;;;;;;;22.85;21.05;;;23.50;99.90;;;;;;4979879;28;20034;-87
2023/06/02 17:27:49;;;;;;;21.88;20.48;;;23.30;99.90;;;;;;4979040;28;20052;-86
2023/06/02 17:30:15;;;;;;;22.42;20.63;;;23.30;99.90;;;;;;4978803;28;20129;-87
2023/06/02 17:32:43;;;;;;;21.70;20.10;;;23.30;99.90;;;;;;4980334;28;20037;-87
2023/06/02 17:35:10;;;;;;;21.58;20.15;;;23.20;99.90;;;;;;4964625;28;20031;-89
2023/06/02 17:37:37;;;;;;;21.20;19.60;;;23.10;99.90;;;;;;4978597;28;20441;-87
2023/06/02 17:40:05;;;;;;;21.38;19.67;;;22.90;99.90;;;;;;4962941;28;20022;-89
2023/06/02 17:42:32;;;;;;;21.92;20.27;;;22.90;99.90;;;;;;4979352;28;20446;-87
2023/06/02 17:44:59;;;;;;;21.80;20.33;;;22.80;99.90;;;;;;4962617;28;20387;-87
2023/06/02 17:47:27;;;;;;;21.40;19.85;;;22.70;99.90;;;;;;4978734;28;20035;-87
2023/06/02 17:49:54;;;;;;;23.83;21.60;;;22.60;99.90;;;;;;4979703;28;20033;-87
2023/06/02 17:52:21;;;;;;;34.58;25.00;;;22.60;99.90;;;;;;4978732;28;20117;-87
2023/06/02 17:54:49;;;;;;;42.85;28.00;;;22.60;99.90;;;;;;4978797;28;20018;-87
2023/06/02 17:57:16;;;;;;;44.13;29.17;;;22.60;99.90;;;;;;4962464;28;20049;-87
2023/06/02 17:59:45;;;;;;;55.45;33.55;;;22.50;99.90;;;;;;4994670;28;20018;-90
2023/06/02 18:02:15;;;;;;;50.92;30.58;;;22.50;99.90;;;;;;4975133;28;20061;-89
2023/06/02 18:04:43;;;;;;;42.78;28.63;;;22.40;99.90;;;;;;4975045;28;20114;-88
2023/06/02 18:07:10;;;;;;;46.03;30.67;;;22.30;99.90;;;;;;4975201;28;20031;-86
2023/06/02 18:09:38;;;;;;;60.45;30.95;;;22.20;99.90;;;;;;4981392;28;20026;-87
2023/06/02 18:12:06;;;;;;;42.67;27.75;;;22.10;99.90;;;;;;4982126;28;20030;-91
2023/06/02 18:14:33;;;;;;;31.90;25.60;;;22.10;99.90;;;;;;5014682;28;20026;-92
2023/06/02 18:16:59;;;;;;;46.83;29.42;;;22.10;99.90;;;;;;5014254;28;20125;-88
2023/06/02 18:19:26;;;;;;;41.67;30.52;;;22.00;99.90;;;;;;5014369;28;20022;-87
2023/06/02 18:21:52;;;;;;;41.13;28.52;;;21.80;99.90;;;;;;5013973;28;20429;-88
2023/06/02 18:24:19;;;;;;;35.28;26.20;;;21.60;99.90;;;;;;5014600;28;20025;-89
2023/06/02 18:26:46;;;;;;;33.13;24.83;;;21.50;99.90;;;;;;5014175;28;20041;-90
2023/06/02 18:29:13;;;;;;;28.77;23.50;;;21.40;99.90;;;;;;5014263;28;20402;-89
2023/06/02 18:31:40;;;;;;;31.75;23.77;;;21.30;99.90;;;;;;4982165;28;20125;-88
2023/06/02 18:34:06;;;;;;;31.35;23.27;;;21.30;99.90;;;;;;4999772;28;20025;-90
